createdAt,value
2023-05-10T00:01:19.882Z,14.77
2023-05-10T00:03:47.288Z,13.73
2023-05-10T00:06:15.045Z,12.98
2023-05-10T00:08:42.273Z,9.48
2023-05-10T00:11:09.501Z,9.23
2023-05-10T00:13:36.701Z,17.67
2023-05-10T00:16:04.124Z,13.85
2023-05-10T00:18:31.321Z,12.40
2023-05-10T00:20:59.695Z,12.82
2023-05-10T00:23:26.904Z,10.85
2023-05-10T00:25:54.182Z,8.50
2023-05-10T00:28:21.446Z,6.22
2023-05-10T00:30:48.735Z,14.55
2023-05-10T00:33:16.056Z,10.88
2023-05-10T00:35:43.263Z,10.98
2023-05-10T00:38:10.700Z,14.70
2023-05-10T00:40:38.420Z,12.48
2023-05-10T00:43:10.517Z,8.35
2023-05-10T00:45:38.772Z,8.48
2023-05-10T00:48:06.580Z,10.35
2023-05-10T00:50:34.201Z,14.25
2023-05-10T00:53:01.950Z,6.55
2023-05-10T00:55:29.461Z,7.47
2023-05-10T00:57:56.817Z,9.90
2023-05-10T01:00:24.098Z,6.38
2023-05-10T01:02:51.603Z,6.20
2023-05-10T01:05:19.420Z,10.45
2023-05-10T01:07:46.750Z,13.43
2023-05-10T01:10:14.159Z,6.97
2023-05-10T01:12:45.908Z,11.20
2023-05-10T01:15:13.320Z,11.57
2023-05-10T01:17:41.606Z,8.75
2023-05-10T01:20:10.634Z,8.18
2023-05-10T01:22:44.422Z,4.90
2023-05-10T01:25:36.982Z,7.53
2023-05-10T01:28:23.553Z,6.28
2023-05-10T01:31:03.268Z,9.98
2023-05-10T01:33:40.669Z,6.25
2023-05-10T01:36:34.878Z,6.97
2023-05-10T01:39:21.342Z,8.55
2023-05-10T01:42:06.933Z,5.90
2023-05-10T01:44:44.168Z,7.93
2023-05-10T01:47:16.093Z,5.63
2023-05-10T01:49:50.613Z,5.95
2023-05-10T01:52:22.717Z,7.75
2023-05-10T01:54:56.783Z,8.75
2023-05-10T01:57:27.468Z,8.57
2023-05-10T01:59:55.282Z,9.00
2023-05-10T02:02:24.715Z,6.63
2023-05-10T02:04:52.570Z,6.50
2023-05-10T02:07:20.333Z,7.47
2023-05-10T02:09:49.044Z,5.57
2023-05-10T02:12:17.484Z,11.20
2023-05-10T02:14:45.329Z,6.25
2023-05-10T02:17:12.907Z,2.78
2023-05-10T02:19:42.083Z,7.22
2023-05-10T02:22:09.765Z,3.80
2023-05-10T02:24:37.738Z,6.10
2023-05-10T02:27:05.428Z,5.80
2023-05-10T02:29:33.767Z,9.63
2023-05-10T02:32:01.425Z,4.38
2023-05-10T02:34:29.196Z,5.32
2023-05-10T02:36:57.251Z,5.13
2023-05-10T02:39:25.097Z,4.13
2023-05-10T02:41:53.433Z,4.55
2023-05-10T02:44:21.496Z,4.60
2023-05-10T02:46:49.008Z,5.75
2023-05-10T02:49:16.729Z,3.30
2023-05-10T02:51:51.326Z,5.20
2023-05-10T02:54:25.949Z,6.57
2023-05-10T02:56:58.017Z,8.85
2023-05-10T02:59:25.339Z,9.93
2023-05-10T03:01:52.650Z,4.20
2023-05-10T03:04:20.247Z,7.43
2023-05-10T03:06:47.898Z,7.75
2023-05-10T03:09:16.667Z,11.02
2023-05-10T03:11:51.178Z,5.72
2023-05-10T03:14:38.376Z,6.50
2023-05-10T03:17:45.142Z,6.88
2023-05-10T03:20:15.617Z,7.72
2023-05-10T03:22:48.373Z,6.43
2023-05-10T03:25:16.746Z,4.45
2023-05-10T03:27:44.977Z,7.07
2023-05-10T03:30:14.056Z,5.43
2023-05-10T03:32:42.212Z,5.82
2023-05-10T03:35:10.694Z,6.95
2023-05-10T03:37:38.518Z,5.57
2023-05-10T03:40:06.972Z,10.88
2023-05-10T03:45:04.156Z,4.90
2023-05-10T03:47:31.596Z,4.00
2023-05-10T03:50:00.660Z,6.28
2023-05-10T03:52:27.940Z,8.23
2023-05-10T03:54:55.264Z,5.53
2023-05-10T03:57:24.542Z,6.37
2023-05-10T03:59:51.817Z,3.33
2023-05-10T04:02:19.154Z,6.88
2023-05-10T04:04:46.434Z,7.30
2023-05-10T04:07:13.805Z,4.82
2023-05-10T04:09:41.340Z,3.08
2023-05-10T04:12:10.833Z,4.72
2023-05-10T04:14:38.641Z,6.28
2023-05-10T04:17:06.733Z,5.80
2023-05-10T04:19:34.160Z,7.35
2023-05-10T04:22:01.493Z,4.13
2023-05-10T04:24:28.709Z,4.45
2023-05-10T04:26:57.796Z,3.92
2023-05-10T04:29:25.248Z,5.22
2023-05-10T04:31:52.471Z,3.50
2023-05-10T04:34:21.596Z,4.75
2023-05-10T04:36:48.863Z,5.50
2023-05-10T04:39:16.070Z,3.53
2023-05-10T04:41:43.277Z,3.90
2023-05-10T04:44:10.555Z,5.55
2023-05-10T04:46:37.997Z,3.47
2023-05-10T04:49:05.354Z,6.00
2023-05-10T04:51:33.167Z,4.15
2023-05-10T04:54:06.247Z,3.85
2023-05-10T04:56:34.353Z,6.75
2023-05-10T04:59:01.813Z,6.47
2023-05-10T05:01:29.221Z,4.70
2023-05-10T05:03:57.330Z,6.70
2023-05-10T05:06:26.089Z,5.00
2023-05-10T05:08:56.553Z,5.38
2023-05-10T05:11:23.885Z,5.25
2023-05-10T05:13:51.142Z,8.63
2023-05-10T05:16:18.445Z,5.22
2023-05-10T05:18:46.046Z,4.45
2023-05-10T05:21:20.496Z,5.97
2023-05-10T05:23:47.940Z,5.18
2023-05-10T05:26:16.030Z,7.22
2023-05-10T05:28:43.310Z,4.60
2023-05-10T05:31:10.713Z,7.20
2023-05-10T05:33:38.177Z,4.45
2023-05-10T05:36:06.599Z,4.05
2023-05-10T05:38:34.179Z,7.72
2023-05-10T05:41:01.683Z,5.65
2023-05-10T05:43:29.046Z,4.63
2023-05-10T05:45:58.827Z,8.90
2023-05-10T05:48:26.447Z,8.90
2023-05-10T05:50:57.534Z,8.10
2023-05-10T05:53:24.901Z,8.43
2023-05-10T05:55:55.292Z,11.25
2023-05-10T05:58:23.220Z,8.98
2023-05-10T06:00:51.247Z,10.77
2023-05-10T06:03:19.070Z,6.70
2023-05-10T06:05:46.427Z,6.68
2023-05-10T06:08:13.882Z,10.35
2023-05-10T06:10:41.188Z,11.35
2023-05-10T06:13:08.489Z,8.65
2023-05-10T06:15:35.976Z,10.65
2023-05-10T06:18:03.228Z,8.68
2023-05-10T06:20:32.492Z,10.82
2023-05-10T06:22:59.925Z,8.47
2023-05-10T06:25:27.304Z,9.10
2023-05-10T06:27:58.288Z,8.80
2023-05-10T06:30:29.304Z,10.88
2023-05-10T06:32:57.031Z,8.13
2023-05-10T06:35:24.482Z,9.95
2023-05-10T06:37:52.255Z,9.30
2023-05-10T06:40:20.117Z,7.32
2023-05-10T06:42:48.545Z,11.07
2023-05-10T06:45:16.600Z,13.65
2023-05-10T06:47:44.604Z,11.10
2023-05-10T06:50:15.064Z,8.70
2023-05-10T06:52:42.503Z,9.02
2023-05-10T06:55:10.045Z,10.95
2023-05-10T06:57:37.519Z,9.95
2023-05-10T07:00:06.155Z,6.95
2023-05-10T07:02:33.733Z,6.68
2023-05-10T07:05:15.416Z,13.20
2023-05-10T07:07:43.284Z,10.10
2023-05-10T07:10:10.928Z,8.32
2023-05-10T07:12:39.327Z,7.93
2023-05-10T07:15:07.611Z,7.72
2023-05-10T07:17:35.160Z,7.00
2023-05-10T07:20:02.724Z,7.55
2023-05-10T07:22:30.055Z,5.43
2023-05-10T07:24:57.417Z,6.43
2023-05-10T07:27:25.133Z,8.75
2023-05-10T07:29:52.395Z,8.10
2023-05-10T07:32:19.675Z,8.38
2023-05-10T07:34:47.149Z,5.93
2023-05-10T07:37:15.185Z,6.22
2023-05-10T07:39:42.571Z,6.15
2023-05-10T07:42:10.173Z,4.90
2023-05-10T07:44:37.480Z,9.30
2023-05-10T07:47:04.983Z,6.40
2023-05-10T07:49:32.242Z,4.63
2023-05-10T07:51:59.430Z,10.50
2023-05-10T07:54:27.102Z,7.03
2023-05-10T07:56:54.274Z,6.03
2023-05-10T07:59:21.977Z,8.82
2023-05-10T08:01:49.143Z,8.73
2023-05-10T08:04:16.449Z,6.07
2023-05-10T08:06:43.701Z,8.55
2023-05-10T08:09:11.884Z,8.18
2023-05-10T08:11:39.323Z,9.57
2023-05-10T08:14:06.564Z,8.05
2023-05-10T08:16:33.870Z,8.80
2023-05-10T08:19:01.295Z,7.65
2023-05-10T08:21:28.560Z,10.35
2023-05-10T08:23:55.852Z,8.63
2023-05-10T08:26:23.084Z,7.05
2023-05-10T08:28:50.544Z,7.50
2023-05-10T08:31:17.960Z,7.63
2023-05-10T08:33:45.671Z,7.90
2023-05-10T08:36:15.171Z,9.75
2023-05-10T08:38:42.598Z,7.00
2023-05-10T08:41:10.705Z,8.18
2023-05-10T08:43:38.645Z,9.65
2023-05-10T08:46:06.667Z,8.00
2023-05-10T08:48:35.705Z,9.23
2023-05-10T08:51:04.332Z,11.15
2023-05-10T08:53:32.859Z,8.13
2023-05-10T08:56:00.397Z,14.65
2023-05-10T08:58:27.642Z,12.52
2023-05-10T09:00:54.970Z,13.35
2023-05-10T09:03:22.250Z,14.82
2023-05-10T09:05:50.185Z,18.30
2023-05-10T09:08:18.417Z,16.98
2023-05-10T09:10:48.879Z,20.17
2023-05-10T09:13:18.584Z,16.80
2023-05-10T09:15:46.343Z,21.92
2023-05-10T09:18:14.056Z,22.13
2023-05-10T09:20:41.682Z,20.38
2023-05-10T09:23:09.516Z,19.35
2023-05-10T09:25:38.206Z,22.98
2023-05-10T09:28:09.793Z,21.25
2023-05-10T09:30:38.599Z,23.13
2023-05-10T09:33:06.022Z,24.85
2023-05-10T09:35:34.650Z,24.27
2023-05-10T09:38:05.498Z,26.27
2023-05-10T09:40:33.025Z,24.90
2023-05-10T09:43:09.902Z,26.90
2023-05-10T09:45:38.926Z,23.83
2023-05-10T09:48:07.922Z,22.13
2023-05-10T09:50:35.514Z,20.95
2023-05-10T09:53:04.860Z,23.30
2023-05-10T09:55:47.074Z,28.98
2023-05-10T09:58:15.157Z,26.85
2023-05-10T10:00:44.510Z,26.75
2023-05-10T10:03:20.037Z,19.67
2023-05-10T10:05:48.806Z,29.17
2023-05-10T10:08:17.803Z,22.85
2023-05-10T10:10:47.088Z,26.85
2023-05-10T10:13:15.981Z,23.95
2023-05-10T10:15:45.047Z,24.40
2023-05-10T10:18:15.498Z,28.25
2023-05-10T10:20:43.281Z,23.00
2023-05-10T10:23:10.886Z,33.33
2023-05-10T10:25:38.996Z,23.90
2023-05-10T10:28:31.371Z,26.98
2023-05-10T10:31:03.533Z,45.03
2023-05-10T10:33:57.526Z,29.02
2023-05-10T10:36:28.122Z,25.50
2023-05-10T10:39:00.410Z,28.05
2023-05-10T10:41:35.117Z,23.90
2023-05-10T10:44:23.682Z,26.98
2023-05-10T10:47:13.335Z,23.73
2023-05-10T10:49:43.421Z,24.02
2023-05-10T10:52:19.379Z,24.98
2023-05-10T10:55:13.711Z,23.77
2023-05-10T10:57:46.436Z,28.83
2023-05-10T11:00:29.931Z,23.13
2023-05-10T11:03:04.625Z,24.65
2023-05-10T11:05:49.101Z,18.15
2023-05-10T11:08:43.190Z,32.40
2023-05-10T11:11:10.916Z,22.25
2023-05-10T11:13:42.307Z,21.98
2023-05-10T11:16:19.752Z,22.85
2023-05-10T11:19:06.247Z,26.10
2023-05-10T11:21:35.420Z,20.30
2023-05-10T11:24:06.909Z,20.55
2023-05-10T11:26:37.663Z,21.52
2023-05-10T11:29:06.037Z,21.33
2023-05-10T11:31:33.620Z,22.38
2023-05-10T11:34:04.717Z,18.38
2023-05-10T11:36:36.133Z,24.13
2023-05-10T11:39:04.243Z,18.25
2023-05-10T11:41:32.127Z,21.42
2023-05-10T11:44:00.409Z,21.65
2023-05-10T11:46:28.762Z,17.30
2023-05-10T11:49:07.822Z,18.63
2023-05-10T11:51:37.222Z,17.75
2023-05-10T11:54:11.579Z,21.38
2023-05-10T11:56:40.339Z,21.85
2023-05-10T11:59:08.896Z,19.60
2023-05-10T12:01:37.440Z,18.70
2023-05-10T12:04:04.941Z,19.58
2023-05-10T12:06:39.759Z,17.00
2023-05-10T12:09:08.917Z,19.33
2023-05-10T12:11:44.574Z,18.30
2023-05-10T12:14:12.281Z,27.45
2023-05-10T12:16:39.496Z,14.48
2023-05-10T12:19:06.849Z,15.40
2023-05-10T12:21:34.528Z,18.23
2023-05-10T12:24:06.379Z,18.00
2023-05-10T12:26:33.787Z,18.17
2023-05-10T12:29:18.325Z,17.27
2023-05-10T12:31:53.695Z,11.30
2023-05-10T12:34:35.203Z,12.32
2023-05-10T12:37:04.300Z,11.32
2023-05-10T12:39:45.400Z,11.52
2023-05-10T12:42:12.939Z,16.50
2023-05-10T12:44:40.676Z,20.00
2023-05-10T12:47:08.422Z,18.95
2023-05-10T12:49:35.575Z,17.83
2023-05-10T12:52:03.046Z,15.25
2023-05-10T12:54:30.512Z,17.15
2023-05-10T12:56:57.818Z,13.98
2023-05-10T12:59:25.002Z,10.75
2023-05-10T13:01:52.238Z,13.57
2023-05-10T13:04:19.388Z,17.27
2023-05-10T13:06:46.648Z,21.27
2023-05-10T13:09:13.884Z,12.73
2023-05-10T13:11:41.063Z,11.65
2023-05-10T13:14:08.212Z,10.70
2023-05-10T13:16:35.601Z,11.80
2023-05-10T13:19:02.928Z,12.13
2023-05-10T13:21:30.381Z,18.13
2023-05-10T13:23:57.521Z,13.57
2023-05-10T13:26:24.843Z,13.77
2023-05-10T13:28:52.855Z,13.27
2023-05-10T13:31:20.211Z,13.70
2023-05-10T13:33:47.507Z,11.20
2023-05-10T13:36:15.117Z,14.90
2023-05-10T13:38:42.860Z,11.98
2023-05-10T13:41:11.656Z,14.20
2023-05-10T13:43:38.854Z,13.10
2023-05-10T13:46:06.171Z,10.93
2023-05-10T13:48:33.368Z,11.90
2023-05-10T13:51:00.514Z,9.77
2023-05-10T13:53:27.782Z,12.30
2023-05-10T13:55:54.977Z,12.80
2023-05-10T13:58:22.216Z,14.65
2023-05-10T14:00:49.961Z,11.38
2023-05-10T14:03:18.097Z,14.05
2023-05-10T14:05:46.351Z,11.77
2023-05-10T14:08:14.183Z,11.75
2023-05-10T14:10:41.541Z,13.80
2023-05-10T14:13:08.991Z,10.15
2023-05-10T14:15:36.549Z,10.25
2023-05-10T14:18:03.971Z,8.68
2023-05-10T14:20:31.248Z,10.52
2023-05-10T14:22:58.673Z,8.70
2023-05-10T14:25:26.075Z,9.43
2023-05-10T14:27:55.472Z,10.85
2023-05-10T14:30:22.832Z,11.43
2023-05-10T14:32:50.081Z,12.35
2023-05-10T14:35:19.439Z,10.52
2023-05-10T14:37:47.147Z,9.60
2023-05-10T14:40:15.025Z,13.27
2023-05-10T14:42:43.384Z,12.65
2023-05-10T14:45:11.933Z,9.50
2023-05-10T14:47:39.283Z,8.55
2023-05-10T14:50:07.133Z,10.32
2023-05-10T14:52:34.550Z,7.10
2023-05-10T14:55:02.280Z,8.50
2023-05-10T14:57:33.269Z,11.65
2023-05-10T15:00:00.564Z,9.55
2023-05-10T15:02:28.341Z,15.85
2023-05-10T15:04:56.011Z,11.90
2023-05-10T15:07:23.727Z,13.68
2023-05-10T15:09:52.556Z,10.85
2023-05-10T15:12:19.889Z,11.73
2023-05-10T15:14:47.662Z,9.27
2023-05-10T15:17:14.843Z,11.25
2023-05-10T15:19:42.041Z,9.82
2023-05-10T15:22:09.510Z,11.52
2023-05-10T15:24:37.118Z,11.68
2023-05-10T15:27:07.751Z,14.13
2023-05-10T15:29:35.341Z,10.90
2023-05-10T15:32:03.860Z,12.77
2023-05-10T15:34:33.153Z,8.98
2023-05-10T15:37:01.546Z,10.40
2023-05-10T15:39:29.024Z,10.95
2023-05-10T15:41:56.323Z,12.32
2023-05-10T15:44:24.186Z,8.70
2023-05-10T15:46:51.607Z,14.57
2023-05-10T15:49:19.173Z,9.18
2023-05-10T15:51:46.907Z,12.65
2023-05-10T15:54:15.068Z,11.52
2023-05-10T15:56:42.688Z,10.63
2023-05-10T15:59:11.806Z,10.07
2023-05-10T16:01:39.161Z,13.30
2023-05-10T16:04:06.503Z,7.82
2023-05-10T16:06:35.395Z,10.23
2023-05-10T16:09:02.655Z,9.48
2023-05-10T16:11:30.066Z,11.45
2023-05-10T16:13:57.483Z,12.90
2023-05-10T16:16:24.844Z,8.52
2023-05-10T16:18:52.583Z,10.40
2023-05-10T16:21:20.015Z,10.77
2023-05-10T16:23:47.546Z,9.23
2023-05-10T16:26:15.150Z,7.20
2023-05-10T16:28:42.533Z,9.23
2023-05-10T16:31:09.834Z,10.43
2023-05-10T16:33:37.312Z,9.90
2023-05-10T16:36:06.163Z,12.35
2023-05-10T16:38:33.473Z,9.02
2023-05-10T16:41:03.855Z,8.98
2023-05-10T16:43:32.743Z,10.57
2023-05-10T16:46:00.014Z,12.30
2023-05-10T16:48:27.257Z,8.05
2023-05-10T16:50:54.534Z,10.73
2023-05-10T16:53:21.946Z,10.82
2023-05-10T16:55:49.274Z,12.98
2023-05-10T16:58:16.563Z,9.60
2023-05-10T17:00:43.961Z,10.57
2023-05-10T17:03:11.562Z,9.52
2023-05-10T17:05:39.049Z,13.00
2023-05-10T17:08:06.604Z,9.85
2023-05-10T17:10:33.867Z,11.02
2023-05-10T17:13:01.158Z,11.57
2023-05-10T17:15:29.042Z,13.57
2023-05-10T17:17:56.816Z,9.60
2023-05-10T17:20:24.058Z,13.73
2023-05-10T17:22:51.452Z,12.95
2023-05-10T17:25:19.064Z,15.45
2023-05-10T17:27:46.809Z,13.68
2023-05-10T17:30:14.837Z,12.27
2023-05-10T17:32:42.146Z,11.45
2023-05-10T17:35:09.938Z,10.80
2023-05-10T17:37:37.234Z,18.27
2023-05-10T17:40:07.320Z,12.15
2023-05-10T17:45:01.939Z,15.27
2023-05-10T17:47:29.487Z,14.38
2023-05-10T17:49:56.854Z,13.05
2023-05-10T17:52:24.229Z,10.93
2023-05-10T17:54:53.385Z,11.63
2023-05-10T17:57:20.826Z,11.63
2023-05-10T17:59:48.146Z,9.93
2023-05-10T18:02:15.557Z,11.15
2023-05-10T18:04:43.443Z,9.30
2023-05-10T18:07:10.986Z,10.43
2023-05-10T18:09:38.239Z,10.52
2023-05-10T18:12:06.143Z,8.30
2023-05-10T18:19:30.811Z,10.05
2023-05-10T18:21:58.267Z,11.35
2023-05-10T18:24:37.518Z,10.05
2023-05-10T18:27:06.726Z,10.65
2023-05-10T18:29:34.171Z,8.55
2023-05-10T18:32:01.545Z,9.57
2023-05-10T18:34:28.996Z,11.80
2023-05-10T18:36:56.376Z,11.57
2023-05-10T18:39:24.360Z,12.30
2023-05-10T18:41:51.829Z,9.98
2023-05-10T18:44:19.317Z,12.77
2023-05-10T18:46:46.697Z,14.15
2023-05-10T18:49:14.054Z,10.07
2023-05-10T18:51:41.362Z,13.40
2023-05-10T18:54:08.618Z,9.45
2023-05-10T18:56:36.585Z,12.23
2023-05-10T18:59:03.928Z,9.40
2023-05-10T19:01:31.308Z,10.88
2023-05-10T19:03:58.872Z,10.90
2023-05-10T19:06:26.244Z,9.48
2023-05-10T19:08:53.498Z,11.23
2023-05-10T19:11:21.877Z,8.43
2023-05-10T19:13:49.188Z,10.75
2023-05-10T19:16:16.864Z,10.52
2023-05-10T19:18:44.716Z,13.48
2023-05-10T19:21:12.158Z,10.32
2023-05-10T19:23:41.737Z,11.52
2023-05-10T19:26:11.031Z,11.70
2023-05-10T19:28:38.613Z,14.95
2023-05-10T19:31:06.315Z,12.50
2023-05-10T19:33:33.759Z,8.70
2023-05-10T19:36:01.118Z,10.93
2023-05-10T19:38:28.476Z,9.30
2023-05-10T19:40:58.183Z,10.43
2023-05-10T19:43:26.116Z,10.02
2023-05-10T19:45:53.456Z,12.02
2023-05-10T19:48:20.892Z,8.68
2023-05-10T19:50:48.140Z,14.02
2023-05-10T19:53:15.471Z,11.48
2023-05-10T19:55:42.722Z,8.68
2023-05-10T19:58:09.935Z,14.93
2023-05-10T20:00:37.334Z,9.55
2023-05-10T20:03:07.012Z,11.75
2023-05-10T20:05:36.334Z,10.18
2023-05-10T20:08:03.573Z,9.80
2023-05-10T20:10:30.958Z,12.55
2023-05-10T20:12:59.125Z,13.77
2023-05-10T20:15:27.335Z,11.00
2023-05-10T20:17:54.711Z,12.45
2023-05-10T20:20:22.200Z,8.50
2023-05-10T20:22:50.068Z,12.57
2023-05-10T20:25:18.656Z,11.90
2023-05-10T20:27:46.195Z,11.00
2023-05-10T20:30:13.499Z,10.60
2023-05-10T20:32:40.865Z,12.13
2023-05-10T20:35:08.589Z,14.57
2023-05-10T20:37:37.840Z,14.88
2023-05-10T20:40:05.806Z,14.35
2023-05-10T20:42:33.064Z,10.45
2023-05-10T20:45:00.379Z,9.80
2023-05-10T20:47:28.108Z,15.98
2023-05-10T20:49:55.375Z,12.10
2023-05-10T20:52:24.455Z,11.13
2023-05-10T20:54:52.063Z,9.52
2023-05-10T20:57:20.026Z,14.02
2023-05-10T20:59:47.272Z,12.68
2023-05-10T21:02:14.548Z,9.73
2023-05-10T21:04:41.902Z,12.77
2023-05-10T21:07:09.182Z,10.45
2023-05-10T21:09:36.581Z,12.07
2023-05-10T21:12:04.308Z,11.43
2023-05-10T21:14:31.584Z,10.07
2023-05-10T21:16:58.840Z,12.25
2023-05-10T21:19:26.263Z,11.13
2023-05-10T21:21:56.128Z,11.57
2023-05-10T21:24:23.826Z,14.02
2023-05-10T21:26:51.079Z,15.35
2023-05-10T21:29:18.335Z,10.88
2023-05-10T21:31:45.653Z,12.43
2023-05-10T21:34:14.144Z,12.02
2023-05-10T21:36:41.361Z,11.93
2023-05-10T21:39:08.730Z,14.23
2023-05-10T21:41:35.934Z,11.20
2023-05-10T21:44:03.335Z,9.63
2023-05-10T21:46:30.542Z,12.95
2023-05-10T21:48:58.073Z,14.88
2023-05-10T21:51:25.340Z,12.57
2023-05-10T21:53:52.984Z,13.95
2023-05-10T21:56:20.205Z,14.30
2023-05-10T21:58:47.554Z,13.15
2023-05-10T22:01:17.103Z,17.25
2023-05-10T22:03:44.885Z,12.48
2023-05-10T22:06:12.280Z,9.88
2023-05-10T22:08:39.510Z,13.20
2023-05-10T22:11:06.800Z,17.52
2023-05-10T22:13:34.494Z,12.20
2023-05-10T22:16:01.914Z,10.35
2023-05-10T22:18:29.158Z,14.15
2023-05-10T22:20:56.450Z,9.93
2023-05-10T22:23:23.827Z,11.55
2023-05-10T22:25:51.122Z,10.27
2023-05-10T22:28:18.338Z,9.77
2023-05-10T22:30:45.768Z,12.00
2023-05-10T22:33:12.961Z,12.93
2023-05-10T22:35:40.320Z,15.38
2023-05-10T22:38:07.545Z,13.85
2023-05-10T22:40:34.862Z,11.13
2023-05-10T22:43:02.236Z,10.38
2023-05-10T22:45:29.469Z,10.88
2023-05-10T22:47:56.723Z,17.48
2023-05-10T22:50:24.663Z,12.85
2023-05-10T22:52:51.912Z,11.35
2023-05-10T22:55:19.332Z,12.48
2023-05-10T22:57:46.588Z,9.70
2023-05-10T23:00:14.210Z,11.15
2023-05-10T23:02:41.832Z,12.68
2023-05-10T23:05:09.823Z,9.32
2023-05-10T23:07:37.259Z,10.75
2023-05-10T23:10:04.818Z,12.27
2023-05-10T23:12:32.177Z,12.18
2023-05-10T23:14:59.743Z,16.25
2023-05-10T23:17:27.029Z,11.93
2023-05-10T23:19:54.319Z,11.15
2023-05-10T23:22:21.488Z,13.65
2023-05-10T23:24:48.781Z,13.13
2023-05-10T23:27:15.925Z,12.75
2023-05-10T23:29:43.195Z,12.25
2023-05-10T23:32:10.730Z,12.00
2023-05-10T23:34:38.174Z,13.07
2023-05-10T23:37:06.191Z,19.60
2023-05-10T23:39:33.464Z,13.93
2023-05-10T23:42:00.657Z,15.13
2023-05-10T23:44:28.015Z,13.45
2023-05-10T23:46:55.244Z,12.98
2023-05-10T23:49:22.618Z,14.35
2023-05-10T23:51:49.804Z,15.20
2023-05-10T23:54:17.150Z,13.27
2023-05-10T23:56:44.454Z,10.00
2023-05-10T23:59:11.764Z,10.60
